Time;durP1;ratioP1;P1;durP2;ratioP2;P2;SDS_P1;SDS_P2;PMS_P1;PMS_P2;Temp;Humidity;BMP_temperature;BMP_pressure;BME280_temperature;BME280_humidity;BME280_pressure;Samples;Min_cycle;Max_cycle;Signal;HPM_P1;HPM_P2
2022/12/10 00:01:44;;;;;;;9.93;5.60;;;0.80;99.90;;;;;;6182246;23;20422;-58
2022/12/10 00:04:12;;;;;;;10.77;6.30;;;0.80;99.90;;;;;;6182110;23;20437;-53
2022/12/10 00:06:42;;;;;;;15.27;7.47;;;0.80;99.90;;;;;;6181767;23;20425;-52
2022/12/10 00:09:17;;;;;;;11.30;5.57;;;0.80;99.90;;;;;;6183368;23;20390;-48
2022/12/10 00:11:44;;;;;;;16.07;6.53;;;0.80;99.90;;;;;;6183432;23;20433;-50
2022/12/10 00:14:14;;;;;;;11.97;5.63;;;0.70;99.90;;;;;;6184001;23;20390;-50
2022/12/10 00:16:45;;;;;;;9.50;5.20;;;0.70;99.90;;;;;;6183684;23;20425;-49
2022/12/10 00:19:14;;;;;;;14.70;7.67;;;0.70;99.90;;;;;;6183908;23;20401;-53
2022/12/10 00:21:46;;;;;;;7.37;5.37;;;0.70;99.90;;;;;;6178765;23;20441;-51
2022/12/10 00:24:16;;;;;;;11.53;5.90;;;0.90;99.90;;;;;;6183005;23;20433;-53
2022/12/10 00:26:45;;;;;;;12.37;4.40;;;0.70;99.90;;;;;;6182161;23;20426;-55
2022/12/10 00:29:13;;;;;;;19.47;7.20;;;0.70;99.90;;;;;;6183030;23;20394;-55
2022/12/10 00:31:46;;;;;;;9.57;7.60;;;0.70;99.90;;;;;;6181289;23;20425;-54
2022/12/10 00:34:13;;;;;;;8.57;5.97;;;0.60;99.90;;;;;;6182249;23;20417;-59
2022/12/10 00:36:44;;;;;;;8.70;5.17;;;0.60;99.90;;;;;;6182029;23;20450;-60
2022/12/10 00:39:15;;;;;;;9.63;6.30;;;0.60;99.90;;;;;;6182888;23;20422;-53
2022/12/10 00:41:43;;;;;;;9.33;7.40;;;0.60;99.90;;;;;;6182703;23;20386;-56
2022/12/10 00:44:10;;;;;;;11.97;5.67;;;0.60;99.90;;;;;;6183029;23;20545;-57
2022/12/10 00:46:37;;;;;;;11.33;5.90;;;0.60;99.90;;;;;;6174348;23;20402;-56
2022/12/10 00:49:05;;;;;;;12.17;5.97;;;0.60;99.90;;;;;;6183294;23;20393;-52
2022/12/10 00:51:32;;;;;;;12.23;5.60;;;0.60;99.90;;;;;;6182455;23;20404;-55
2022/12/10 00:54:00;;;;;;;13.90;7.20;;;0.60;99.90;;;;;;6182840;23;20398;-51
2022/12/10 00:56:29;;;;;;;13.43;6.73;;;0.60;99.90;;;;;;6183530;23;20410;-49
2022/12/10 00:58:57;;;;;;;11.93;7.00;;;0.60;99.90;;;;;;6184255;23;20390;-57
2022/12/10 01:01:28;;;;;;;15.60;6.70;;;0.60;99.90;;;;;;6183858;23;20382;-55
2022/12/10 01:03:58;;;;;;;12.73;5.83;;;0.60;99.90;;;;;;6177707;23;20430;-54
2022/12/10 01:06:28;;;;;;;11.53;6.50;;;0.50;99.90;;;;;;6183642;23;20389;-50
2022/12/10 01:08:58;;;;;;;12.77;6.30;;;0.50;99.90;;;;;;6184805;23;20401;-52
2022/12/10 01:11:28;;;;;;;8.90;5.00;;;0.50;99.90;;;;;;6183660;23;20433;-57
2022/12/10 01:13:55;;;;;;;11.93;6.10;;;0.60;99.90;;;;;;6183965;23;20394;-56
2022/12/10 01:16:23;;;;;;;13.83;7.10;;;0.50;99.90;;;;;;6184207;23;20397;-54
2022/12/10 01:18:50;;;;;;;13.93;7.97;;;0.50;99.90;;;;;;6183261;23;20433;-59
2022/12/10 01:21:21;;;;;;;12.93;6.33;;;0.50;99.90;;;;;;6183943;23;20405;-53
2022/12/10 01:23:50;;;;;;;10.83;6.33;;;0.40;99.90;;;;;;6182987;23;20429;-60
2022/12/10 01:26:19;;;;;;;11.40;6.63;;;0.50;99.90;;;;;;6182362;23;20417;-53
2022/12/10 01:28:46;;;;;;;9.57;5.90;;;0.50;99.90;;;;;;6183404;23;20410;-54
2022/12/10 01:31:15;;;;;;;11.43;5.90;;;0.50;99.90;;;;;;6183270;23;20440;-54
2022/12/10 01:33:44;;;;;;;7.17;4.20;;;0.50;99.90;;;;;;6182449;23;20433;-53
2022/12/10 01:36:13;;;;;;;11.27;6.40;;;0.60;99.90;;;;;;6181843;23;20424;-57
2022/12/10 01:38:40;;;;;;;8.80;6.00;;;0.60;99.90;;;;;;6181525;23;20440;-54
2022/12/10 01:41:13;;;;;;;7.63;4.57;;;0.60;99.90;;;;;;6182580;23;20599;-56
2022/12/10 01:43:53;;;;;;;13.67;5.97;;;0.60;99.90;;;;;;6182053;23;20457;-51
2022/12/10 01:46:21;;;;;;;14.83;7.70;;;0.60;99.90;;;;;;6182254;23;20382;-55
2022/12/10 01:48:48;;;;;;;14.53;6.27;;;0.60;99.90;;;;;;6182017;23;20430;-56
2022/12/10 01:51:15;;;;;;;12.57;6.10;;;0.50;99.90;;;;;;6181334;23;20402;-55
2022/12/10 01:53:44;;;;;;;10.47;6.17;;;0.50;99.90;;;;;;6182116;23;20426;-58
2022/12/10 01:56:15;;;;;;;11.80;7.23;;;0.50;99.90;;;;;;6182056;23;20382;-55
2022/12/10 01:58:42;;;;;;;11.20;7.00;;;0.50;99.90;;;;;;6181640;23;20440;-52
2022/12/10 02:01:12;;;;;;;9.80;6.80;;;0.40;99.90;;;;;;6176273;23;20362;-55
2022/12/10 02:03:52;;;;;;;8.90;4.60;;;0.40;99.90;;;;;;6181367;23;20450;-57
2022/12/10 02:06:29;;;;;;;11.30;5.93;;;0.40;99.90;;;;;;6182267;23;20693;-54
2022/12/10 02:09:05;;;;;;;14.00;6.23;;;0.40;99.90;;;;;;6180795;23;20426;-56
2022/12/10 02:11:40;;;;;;;12.60;6.10;;;0.40;99.90;;;;;;6182341;23;20382;-56
2022/12/10 02:14:14;;;;;;;21.50;7.60;;;0.30;99.90;;;;;;6182070;23;20729;-53
2022/12/10 02:16:45;;;;;;;10.00;5.57;;;0.30;99.90;;;;;;6181939;23;20374;-52
2022/12/10 02:19:22;;;;;;;12.70;6.23;;;0.30;99.90;;;;;;6181878;23;20434;-53
2022/12/10 02:21:53;;;;;;;16.57;7.67;;;0.20;99.90;;;;;;6182768;23;20394;-53
2022/12/10 02:24:27;;;;;;;10.17;6.30;;;0.20;99.90;;;;;;6181582;23;20536;-53
2022/12/10 02:27:04;;;;;;;14.40;6.50;;;0.20;99.90;;;;;;6181758;23;20410;-58
2022/12/10 02:29:33;;;;;;;11.73;6.53;;;0.20;99.90;;;;;;6181643;23;20494;-55
2022/12/10 02:32:06;;;;;;;9.70;6.27;;;0.20;99.90;;;;;;6181819;23;20383;-56
2022/12/10 02:34:37;;;;;;;13.53;8.80;;;0.20;99.90;;;;;;6181028;23;20410;-56
2022/12/10 02:37:09;;;;;;;12.20;6.40;;;0.10;99.90;;;;;;6181670;23;20428;-51
2022/12/10 02:42:31;;;;;;;9.10;6.37;;;-0.80;99.90;;;;;;6148193;23;20429;-57
2022/12/10 02:45:01;;;;;;;11.30;6.87;;;0.00;99.90;;;;;;6121973;23;20485;-49
2022/12/10 02:47:28;;;;;;;12.97;7.40;;;0.00;99.90;;;;;;6150349;23;20399;-55
2022/12/10 02:49:57;;;;;;;11.57;5.73;;;0.00;99.90;;;;;;6149994;23;20423;-53
2022/12/10 02:52:25;;;;;;;10.10;6.23;;;0.00;99.90;;;;;;6150531;23;20391;-52
2022/12/10 02:54:53;;;;;;;15.70;7.27;;;-0.10;99.90;;;;;;6149590;23;20504;-56
2022/12/10 02:57:29;;;;;;;11.47;7.63;;;0.00;99.90;;;;;;6150814;23;20403;-52
2022/12/10 03:00:07;;;;;;;12.70;6.20;;;0.00;99.90;;;;;;6150235;23;20426;-53
2022/12/10 03:02:44;;;;;;;12.13;7.40;;;-0.10;99.90;;;;;;6150505;23;20441;-55
2022/12/10 03:05:16;;;;;;;13.83;7.70;;;-0.10;99.90;;;;;;6150620;23;20437;-54
2022/12/10 03:07:48;;;;;;;13.87;8.27;;;-0.10;99.90;;;;;;6150627;23;20391;-57
2022/12/10 03:10:23;;;;;;;20.87;8.97;;;-0.10;99.90;;;;;;6151541;23;20460;-59
2022/12/10 03:12:55;;;;;;;13.17;6.90;;;-0.10;99.90;;;;;;6151585;23;20386;-50
2022/12/10 03:15:26;;;;;;;12.97;7.50;;;-0.10;99.90;;;;;;6150124;23;20406;-54
2022/12/10 03:17:55;;;;;;;14.23;5.43;;;-0.10;99.90;;;;;;6150361;23;20387;-51
2022/12/10 03:20:26;;;;;;;14.50;7.50;;;-0.20;99.90;;;;;;6150013;23;20406;-53
2022/12/10 03:22:53;;;;;;;13.57;5.80;;;-0.10;99.90;;;;;;6150575;23;20387;-52
2022/12/10 03:25:24;;;;;;;12.83;6.90;;;-0.20;99.90;;;;;;6149616;23;20401;-50
2022/12/10 03:27:55;;;;;;;13.53;9.60;;;-0.20;99.90;;;;;;6150609;23;20383;-51
2022/12/10 03:30:24;;;;;;;14.30;7.13;;;-0.20;99.90;;;;;;6149793;23;20405;-52
2022/12/10 03:32:52;;;;;;;13.03;7.17;;;-0.20;99.90;;;;;;6150086;23;20398;-53
2022/12/10 03:35:21;;;;;;;13.37;8.70;;;-0.20;99.90;;;;;;6150219;23;20403;-58
2022/12/10 03:37:49;;;;;;;13.93;6.87;;;-0.20;99.90;;;;;;6150115;23;20418;-57
2022/12/10 03:40:26;;;;;;;22.07;8.40;;;-0.20;99.90;;;;;;6150414;23;20414;-54
2022/12/10 03:42:53;;;;;;;19.23;5.27;;;-0.20;99.90;;;;;;6150452;23;20398;-55
2022/12/10 03:45:20;;;;;;;13.90;6.97;;;-0.20;99.90;;;;;;6153696;23;20446;-58
2022/12/10 03:47:50;;;;;;;19.20;8.77;;;-0.10;99.90;;;;;;6153853;23;20394;-56
2022/12/10 03:50:17;;;;;;;13.80;7.73;;;-0.10;99.90;;;;;;6153474;23;20386;-57
2022/12/10 03:52:44;;;;;;;19.17;7.80;;;-0.10;99.90;;;;;;6154322;23;20401;-55
2022/12/10 03:55:12;;;;;;;15.80;7.70;;;-0.10;99.90;;;;;;6153711;23;20466;-51
2022/12/10 03:57:38;;;;;;;23.13;9.13;;;-0.10;99.90;;;;;;6153576;23;20423;-49
2022/12/10 04:00:08;;;;;;;17.20;9.47;;;-0.10;99.90;;;;;;6153460;23;20411;-52
2022/12/10 04:02:34;;;;;;;14.73;7.03;;;-0.10;99.90;;;;;;6154153;23;20419;-57
2022/12/10 04:05:04;;;;;;;13.73;6.37;;;0.00;99.90;;;;;;6154586;23;20434;-48
2022/12/10 04:07:33;;;;;;;12.63;6.23;;;-0.10;99.90;;;;;;6154747;23;20441;-51
2022/12/10 04:10:00;;;;;;;13.63;7.10;;;0.00;99.90;;;;;;6154315;23;20383;-64
2022/12/10 04:12:26;;;;;;;16.70;10.07;;;0.00;99.90;;;;;;6154276;23;20422;-55
2022/12/10 04:17:38;;;;;;;20.47;8.23;;;0.00;99.90;;;;;;6153707;23;20417;-49
2022/12/10 04:26:51;;;;;;;21.70;7.90;;;0.00;99.90;;;;;;6153689;23;20407;-52
2022/12/10 04:28:23;;;;;;;14.33;8.40;;;0.00;99.90;;;;;;6153797;23;20437;-58
2022/12/10 04:30:53;;;;;;;13.60;6.50;;;0.00;99.90;;;;;;6152914;23;20413;-53
2022/12/10 04:33:22;;;;;;;10.63;6.83;;;0.10;99.90;;;;;;6153471;23;20429;-50
2022/12/10 04:35:50;;;;;;;18.13;8.17;;;0.10;99.90;;;;;;6152926;23;20465;-51
2022/12/10 04:38:19;;;;;;;16.93;9.57;;;0.00;99.90;;;;;;6153774;23;20430;-51
2022/12/10 04:40:46;;;;;;;21.63;8.97;;;0.00;99.90;;;;;;6154109;23;20845;-50
2022/12/10 04:43:12;;;;;;;17.00;8.40;;;0.00;99.90;;;;;;6154111;23;20403;-51
2022/12/10 04:45:39;;;;;;;12.80;7.83;;;0.00;99.90;;;;;;6154548;23;20390;-48
2022/12/10 04:48:14;;;;;;;13.43;8.17;;;0.10;99.90;;;;;;6154233;23;20411;-58
2022/12/10 04:50:45;;;;;;;19.23;8.50;;;0.70;99.90;;;;;;6154434;23;20370;-47
2022/12/10 04:53:16;;;;;;;13.13;5.93;;;0.10;99.90;;;;;;6154151;23;20423;-51
2022/12/10 04:55:45;;;;;;;17.13;7.43;;;0.10;99.90;;;;;;6153790;23;20383;-45
2022/12/10 04:58:12;;;;;;;18.33;7.40;;;0.10;99.90;;;;;;6153612;23;20461;-56
2022/12/10 05:00:40;;;;;;;12.40;7.20;;;0.20;99.90;;;;;;6153808;23;20382;-49
2022/12/10 05:03:07;;;;;;;13.37;6.70;;;0.10;99.90;;;;;;6153263;23;20463;-54
2022/12/10 05:05:35;;;;;;;10.70;5.40;;;0.20;99.90;;;;;;6153039;23;20435;-49
2022/12/10 05:08:02;;;;;;;17.93;8.67;;;0.20;99.90;;;;;;6153325;23;20430;-50
2022/12/10 05:10:30;;;;;;;11.87;7.03;;;0.20;99.90;;;;;;6152908;23;20418;-49
2022/12/10 05:12:57;;;;;;;12.77;7.30;;;0.20;99.90;;;;;;6153203;23;20407;-53
2022/12/10 05:15:24;;;;;;;9.63;6.60;;;0.20;99.90;;;;;;6152980;23;20386;-54
2022/12/10 05:17:51;;;;;;;22.87;9.00;;;0.20;99.90;;;;;;6152748;23;20407;-51
2022/12/10 05:20:32;;;;;;;13.73;5.90;;;0.20;99.90;;;;;;6152830;23;20398;-51
2022/12/10 05:25:52;;;;;;;16.47;6.27;;;0.30;99.90;;;;;;6152866;23;20425;-54
2022/12/10 05:28:19;;;;;;;22.63;9.70;;;0.40;99.90;;;;;;6152482;23;20465;-52
2022/12/10 05:30:46;;;;;;;16.93;6.97;;;0.30;99.90;;;;;;6152773;23;20456;-53
2022/12/10 05:33:13;;;;;;;15.90;7.93;;;0.40;99.90;;;;;;6153232;23;20403;-59
2022/12/10 05:35:40;;;;;;;12.23;5.90;;;0.40;99.90;;;;;;6153243;23;20390;-59
2022/12/10 05:38:10;;;;;;;17.93;7.67;;;0.40;99.90;;;;;;6153268;23;20490;-48
2022/12/10 05:40:40;;;;;;;12.47;7.10;;;0.50;99.90;;;;;;6153256;23;20398;-54
2022/12/10 05:43:09;;;;;;;11.07;5.60;;;0.50;99.90;;;;;;6152789;23;20387;-53
2022/12/10 05:45:35;;;;;;;15.13;6.60;;;0.60;99.90;;;;;;6152426;23;20449;-52
2022/12/10 05:48:02;;;;;;;17.93;7.57;;;0.50;99.90;;;;;;6152997;23;20414;-52
2022/12/10 05:50:54;;;;;;;13.43;7.70;;;0.50;99.90;;;;;;6152418;23;20403;-52
2022/12/10 05:53:21;;;;;;;14.10;7.10;;;0.60;99.90;;;;;;6123427;23;20390;-54
2022/12/10 05:55:53;;;;;;;15.03;8.10;;;0.60;99.90;;;;;;6152919;23;20454;-50
2022/12/10 05:58:21;;;;;;;10.93;6.20;;;0.60;99.90;;;;;;6152377;23;20451;-51
2022/12/10 06:00:48;;;;;;;9.23;5.37;;;0.70;99.90;;;;;;6152546;23;20399;-49
2022/12/10 06:03:15;;;;;;;15.83;7.90;;;0.70;99.90;;;;;;6152279;23;20382;-57
2022/12/10 06:05:42;;;;;;;13.47;7.07;;;0.70;99.90;;;;;;6151814;23;20564;-49
2022/12/10 06:08:09;;;;;;;10.43;6.70;;;0.70;99.90;;;;;;6153404;23;20402;-55
2022/12/10 06:10:36;;;;;;;11.23;8.33;;;0.70;99.90;;;;;;6153035;23;20411;-51
2022/12/10 06:13:04;;;;;;;16.57;7.53;;;0.70;99.90;;;;;;6152318;23;20399;-53
2022/12/10 06:15:33;;;;;;;14.30;5.90;;;0.70;99.90;;;;;;6152621;23;20430;-52
2022/12/10 06:18:00;;;;;;;8.17;5.43;;;0.70;99.90;;;;;;6147628;23;20410;-62
2022/12/10 06:20:29;;;;;;;10.83;7.40;;;0.80;99.90;;;;;;6152863;23;20427;-51
2022/12/10 06:22:56;;;;;;;13.07;8.30;;;0.80;99.90;;;;;;6152787;23;20414;-53
2022/12/10 06:25:23;;;;;;;7.63;5.23;;;0.80;99.90;;;;;;6152307;23;20453;-59
2022/12/10 06:27:49;;;;;;;11.50;5.47;;;0.80;99.90;;;;;;6152683;23;20434;-52
2022/12/10 06:30:18;;;;;;;13.33;5.97;;;0.80;99.90;;;;;;6152799;23;20423;-53
2022/12/10 06:32:48;;;;;;;16.03;6.40;;;0.90;99.90;;;;;;6152987;23;20407;-55
2022/12/10 06:35:15;;;;;;;9.27;6.13;;;0.90;99.90;;;;;;6152779;23;20413;-48
2022/12/10 06:37:41;;;;;;;9.30;4.50;;;0.90;99.90;;;;;;6152719;23;20406;-54
2022/12/10 06:40:09;;;;;;;9.63;5.23;;;0.90;99.90;;;;;;6152909;23;20419;-53
2022/12/10 06:42:36;;;;;;;13.87;7.60;;;0.90;99.90;;;;;;6152398;23;20394;-55
2022/12/10 06:45:06;;;;;;;13.53;6.53;;;0.90;99.90;;;;;;6152593;23;20446;-49
2022/12/10 06:47:33;;;;;;;8.67;6.40;;;1.00;99.90;;;;;;6152873;23;20394;-46
2022/12/10 06:50:01;;;;;;;14.30;7.47;;;1.00;99.90;;;;;;6153048;23;20379;-52
2022/12/10 06:52:28;;;;;;;12.00;6.03;;;1.00;99.90;;;;;;6152742;23;20372;-49
2022/12/10 06:54:56;;;;;;;11.03;6.63;;;1.00;99.90;;;;;;6152533;23;20410;-53
2022/12/10 06:57:25;;;;;;;8.50;4.40;;;1.00;99.90;;;;;;6153001;23;20471;-52
2022/12/10 06:59:52;;;;;;;16.30;5.33;;;1.00;99.90;;;;;;6152729;23;20422;-60
2022/12/10 07:02:24;;;;;;;11.30;5.00;;;1.00;99.90;;;;;;6152874;23;20406;-52
2022/12/10 07:04:50;;;;;;;12.37;5.73;;;0.90;99.90;;;;;;6152796;23;20482;-49
2022/12/10 07:07:20;;;;;;;11.37;5.73;;;1.00;99.90;;;;;;6152943;23;20403;-48
2022/12/10 07:09:47;;;;;;;11.50;5.87;;;1.00;99.90;;;;;;6152509;23;20406;-57
2022/12/10 07:12:14;;;;;;;7.73;3.70;;;1.00;99.90;;;;;;6152656;23;20402;-50
2022/12/10 07:14:41;;;;;;;9.13;4.93;;;1.00;99.90;;;;;;6153079;23;20393;-51
2022/12/10 07:17:08;;;;;;;11.40;5.23;;;1.00;99.90;;;;;;6152738;23;20415;-56
2022/12/10 07:19:35;;;;;;;7.60;3.70;;;1.00;99.90;;;;;;6152793;23;20397;-54
2022/12/10 07:22:02;;;;;;;11.77;5.00;;;1.00;99.90;;;;;;6152647;23;20411;-62
2022/12/10 07:24:30;;;;;;;14.30;5.30;;;1.00;99.90;;;;;;6152578;23;20422;-53
2022/12/10 07:26:57;;;;;;;8.70;4.60;;;1.00;99.90;;;;;;6146232;23;20427;-54
2022/12/10 07:29:26;;;;;;;8.93;5.13;;;1.00;99.90;;;;;;6151191;23;20403;-54
2022/12/10 07:31:54;;;;;;;10.97;5.07;;;1.00;99.90;;;;;;6152346;23;20435;-53
2022/12/10 07:34:24;;;;;;;10.30;6.40;;;1.00;99.90;;;;;;6152553;23;20434;-44
2022/12/10 07:36:51;;;;;;;10.90;5.13;;;1.00;99.90;;;;;;6152362;23;20426;-49
2022/12/10 07:39:18;;;;;;;12.03;6.20;;;1.00;99.90;;;;;;6152855;23;20394;-49
2022/12/10 07:41:49;;;;;;;10.10;5.67;;;1.00;99.90;;;;;;6149332;23;20465;-50
2022/12/10 07:44:18;;;;;;;5.10;3.77;;;1.00;99.90;;;;;;6152386;23;20418;-53
2022/12/10 07:46:45;;;;;;;8.47;5.50;;;0.90;99.90;;;;;;6152013;23;20415;-58
2022/12/10 07:49:17;;;;;;;13.50;6.27;;;1.00;99.90;;;;;;6153276;23;20387;-49
2022/12/10 07:51:48;;;;;;;8.23;5.07;;;1.00;99.90;;;;;;6152079;23;20433;-54
2022/12/10 07:54:16;;;;;;;6.87;4.97;;;1.00;99.90;;;;;;6152154;23;20398;-50
2022/12/10 07:56:43;;;;;;;15.33;5.40;;;1.00;99.90;;;;;;6152450;23;20428;-47
2022/12/10 07:59:11;;;;;;;9.77;6.27;;;1.00;99.90;;;;;;6152252;23;20456;-49
2022/12/10 08:01:38;;;;;;;9.03;5.60;;;1.00;99.90;;;;;;6152680;23;20399;-52
2022/12/10 08:04:05;;;;;;;10.17;4.90;;;1.00;99.90;;;;;;6152794;23;20411;-56
2022/12/10 08:06:32;;;;;;;8.07;5.10;;;1.00;99.90;;;;;;6152077;23;20430;-54
2022/12/10 08:09:00;;;;;;;7.83;4.97;;;1.00;99.90;;;;;;6152495;23;20387;-55
2022/12/10 08:11:29;;;;;;;14.30;5.50;;;1.00;99.90;;;;;;6152623;23;20406;-48
2022/12/10 08:13:58;;;;;;;9.00;5.60;;;1.00;99.90;;;;;;6143373;23;20418;-46
2022/12/10 08:16:30;;;;;;;7.57;4.80;;;1.00;99.90;;;;;;6152244;23;20382;-52
2022/12/10 08:18:59;;;;;;;9.10;5.37;;;1.00;99.90;;;;;;6152325;23;20387;-56
2022/12/10 08:21:28;;;;;;;8.23;5.60;;;1.00;99.90;;;;;;6151759;23;20397;-53
2022/12/10 08:23:56;;;;;;;8.40;4.70;;;1.00;99.90;;;;;;6152155;23;20522;-51
2022/12/10 08:26:25;;;;;;;9.97;4.93;;;1.00;99.90;;;;;;6152036;23;20442;-52
2022/12/10 08:28:55;;;;;;;7.97;4.70;;;1.10;99.90;;;;;;6152275;23;20454;-54
2022/12/10 08:31:25;;;;;;;8.33;4.57;;;1.10;99.90;;;;;;6154170;23;20406;-49
2022/12/10 08:33:56;;;;;;;9.57;4.50;;;1.10;99.90;;;;;;6153955;23;20438;-54
2022/12/10 08:36:23;;;;;;;11.83;5.40;;;1.10;99.90;;;;;;6153961;23;20415;-51
2022/12/10 08:38:50;;;;;;;5.90;4.40;;;1.10;99.90;;;;;;6153756;23;20485;-59
2022/12/10 08:41:19;;;;;;;10.67;4.50;;;1.10;99.90;;;;;;6154116;23;20422;-56
2022/12/10 08:43:46;;;;;;;6.20;4.53;;;1.10;99.90;;;;;;6154375;23;20446;-53
2022/12/10 08:46:14;;;;;;;9.30;5.77;;;1.10;99.90;;;;;;6154446;23;20430;-57
2022/12/10 08:48:41;;;;;;;7.77;4.93;;;1.20;99.90;;;;;;6153633;23;20430;-54
2022/12/10 08:51:11;;;;;;;8.20;5.23;;;1.20;99.90;;;;;;6153746;23;20414;-57
2022/12/10 08:53:40;;;;;;;4.83;3.90;;;1.20;99.90;;;;;;6153562;23;20426;-58
2022/12/10 08:56:07;;;;;;;12.77;4.47;;;1.20;99.90;;;;;;6148070;23;20387;-49
2022/12/10 08:58:34;;;;;;;8.60;4.93;;;1.20;99.90;;;;;;6153623;23;20447;-54
2022/12/10 09:01:05;;;;;;;10.47;5.23;;;1.20;99.90;;;;;;6154331;23;20397;-56
2022/12/10 09:03:32;;;;;;;15.47;6.50;;;1.20;99.90;;;;;;6153934;23;20375;-52
2022/12/10 09:06:03;;;;;;;7.80;4.80;;;1.20;99.90;;;;;;6153770;23;20423;-57
2022/12/10 09:08:35;;;;;;;9.77;6.80;;;1.20;99.90;;;;;;6154386;23;20396;-53
2022/12/10 09:11:06;;;;;;;8.87;5.10;;;1.20;99.90;;;;;;6151295;23;20466;-62
2022/12/10 09:13:33;;;;;;;10.77;6.63;;;1.20;99.90;;;;;;6151643;23;20415;-61
2022/12/10 09:16:00;;;;;;;9.37;5.67;;;1.30;99.90;;;;;;6153776;23;20478;-48
2022/12/10 09:18:27;;;;;;;7.90;4.33;;;1.30;99.90;;;;;;6153652;23;20403;-48
2022/12/10 09:20:54;;;;;;;9.27;5.87;;;1.30;99.90;;;;;;6153175;23;20439;-47
2022/12/10 09:23:21;;;;;;;11.30;5.60;;;1.30;99.90;;;;;;6146797;23;20402;-62
2022/12/10 09:25:49;;;;;;;8.73;6.70;;;1.30;99.90;;;;;;6153093;23;20446;-60
2022/12/10 09:28:17;;;;;;;8.90;5.73;;;1.30;99.90;;;;;;6153733;23;20422;-58
2022/12/10 09:30:44;;;;;;;9.63;4.13;;;1.40;99.90;;;;;;6153204;23;20438;-59
2022/12/10 09:33:12;;;;;;;8.20;5.30;;;1.40;99.90;;;;;;6153145;23;20407;-55
2022/12/10 09:35:43;;;;;;;9.03;5.97;;;1.40;99.90;;;;;;6152812;23;20435;-59
2022/12/10 09:38:10;;;;;;;6.47;4.13;;;1.50;99.90;;;;;;6153067;23;20399;-56
2022/12/10 09:40:42;;;;;;;9.57;5.30;;;1.50;99.90;;;;;;6153195;23;20407;-60
2022/12/10 09:43:21;;;;;;;11.87;4.60;;;1.50;99.90;;;;;;6153223;23;20391;-48
2022/12/10 09:45:59;;;;;;;8.57;5.33;;;1.50;99.90;;;;;;6152779;23;20525;-49
2022/12/10 09:48:32;;;;;;;8.47;5.23;;;1.50;99.90;;;;;;6153226;23;20386;-49
2022/12/10 09:51:06;;;;;;;8.27;4.63;;;1.50;99.90;;;;;;6152853;23;20383;-56
2022/12/10 09:53:34;;;;;;;10.70;5.00;;;1.50;99.90;;;;;;6152350;23;20421;-49
2022/12/10 09:56:03;;;;;;;7.43;4.73;;;1.60;99.90;;;;;;6153271;23;20383;-50
2022/12/10 09:58:31;;;;;;;12.27;6.50;;;1.60;99.90;;;;;;6152638;23;20410;-47
2022/12/10 10:01:00;;;;;;;9.93;6.23;;;1.60;99.90;;;;;;6153377;23;20418;-49
2022/12/10 10:03:29;;;;;;;11.47;6.40;;;1.60;99.90;;;;;;6153240;23;20411;-53
2022/12/10 10:05:57;;;;;;;28.43;7.30;;;1.60;99.90;;;;;;6152952;23;20443;-46
2022/12/10 10:08:30;;;;;;;9.47;6.00;;;1.60;99.90;;;;;;6153000;23;20430;-45
2022/12/10 10:10:57;;;;;;;9.47;5.47;;;1.60;99.90;;;;;;6152203;23;20442;-51
2022/12/10 10:13:35;;;;;;;8.77;5.80;;;1.60;99.90;;;;;;6152789;23;20403;-49
2022/12/10 10:16:19;;;;;;;9.13;6.73;;;1.60;99.90;;;;;;6153181;23;20410;-46
2022/12/10 10:18:49;;;;;;;9.63;7.03;;;1.60;99.90;;;;;;6153253;23;20375;-54
2022/12/10 10:21:22;;;;;;;12.20;6.27;;;1.70;99.90;;;;;;6153062;23;20431;-49
2022/12/10 10:23:58;;;;;;;14.73;6.13;;;1.70;99.90;;;;;;6152296;23;20423;-50
2022/12/10 10:26:26;;;;;;;8.07;5.10;;;1.70;99.90;;;;;;6153115;23;20422;-45
2022/12/10 10:28:58;;;;;;;9.27;4.80;;;1.70;99.90;;;;;;6152317;23;20414;-51
2022/12/10 10:31:27;;;;;;;10.77;7.13;;;1.70;99.90;;;;;;6152996;23;20426;-54
2022/12/10 10:33:57;;;;;;;9.47;5.23;;;1.70;99.90;;;;;;6153402;23;20414;-57
2022/12/10 10:36:26;;;;;;;8.77;6.47;;;1.70;99.90;;;;;;6153111;23;20430;-51
2022/12/10 10:38:53;;;;;;;11.37;5.63;;;1.70;99.90;;;;;;6152901;23;20419;-56
2022/12/10 10:41:20;;;;;;;6.23;4.97;;;1.70;99.90;;;;;;6153610;23;20454;-57
2022/12/10 10:43:52;;;;;;;13.57;6.77;;;1.70;99.90;;;;;;6153700;23;20395;-53
2022/12/10 10:46:23;;;;;;;8.97;5.30;;;1.70;99.90;;;;;;6153184;23;20441;-58
2022/12/10 10:49:12;;;;;;;7.80;6.10;;;1.70;99.90;;;;;;6153576;23;20395;-48
2022/12/10 10:51:44;;;;;;;8.80;5.50;;;1.80;99.90;;;;;;6153088;23;20454;-52
2022/12/10 10:54:15;;;;;;;15.73;5.07;;;1.80;99.90;;;;;;6152869;23;20450;-59
2022/12/10 10:56:50;;;;;;;9.27;5.20;;;1.90;99.90;;;;;;6152949;23;20427;-46
2022/12/10 10:59:30;;;;;;;12.00;5.80;;;1.80;99.90;;;;;;6153128;23;20390;-57
2022/12/10 11:02:04;;;;;;;8.90;4.93;;;1.90;99.90;;;;;;6152551;23;20434;-67
2022/12/10 11:04:36;;;;;;;11.00;6.37;;;1.90;99.90;;;;;;6152872;23;20383;-53
2022/12/10 11:07:13;;;;;;;7.10;4.53;;;2.00;99.90;;;;;;6152466;23;20494;-50
2022/12/10 11:09:40;;;;;;;9.13;5.70;;;1.90;99.90;;;;;;6152902;23;20418;-49
2022/12/10 11:12:21;;;;;;;13.27;6.83;;;2.00;99.90;;;;;;6152253;23;20426;-51
2022/12/10 11:14:48;;;;;;;11.87;4.93;;;1.90;99.90;;;;;;6152234;23;20383;-54
2022/12/10 11:17:22;;;;;;;12.30;6.03;;;1.90;99.90;;;;;;6151665;23;20434;-49
2022/12/10 11:19:56;;;;;;;11.73;6.90;;;1.90;99.90;;;;;;6152710;23;20419;-51
2022/12/10 11:22:29;;;;;;;10.60;4.77;;;2.00;99.90;;;;;;6151749;23;20438;-54
2022/12/10 11:24:57;;;;;;;13.63;8.57;;;1.90;99.90;;;;;;6152494;23;20391;-60
2022/12/10 11:27:39;;;;;;;9.63;5.57;;;1.90;99.90;;;;;;6152365;23;20453;-59
2022/12/10 11:30:10;;;;;;;8.33;5.73;;;1.90;99.90;;;;;;6152063;23;20406;-51
2022/12/10 11:33:08;;;;;;;14.90;6.70;;;1.90;99.90;;;;;;6152266;23;20421;-48
2022/12/10 11:35:50;;;;;;;8.67;5.90;;;1.90;99.90;;;;;;6152386;23;20379;-49
2022/12/10 11:38:26;;;;;;;13.67;6.03;;;1.90;99.90;;;;;;6152474;23;20380;-49
2022/12/10 11:41:02;;;;;;;8.90;6.60;;;1.90;99.90;;;;;;6152017;23;20425;-47
2022/12/10 11:43:43;;;;;;;10.13;5.57;;;1.90;99.90;;;;;;6152500;23;20418;-53
2022/12/10 11:46:25;;;;;;;13.50;6.40;;;1.90;99.90;;;;;;6152574;23;20431;-57
2022/12/10 11:49:10;;;;;;;12.63;5.73;;;1.90;99.90;;;;;;6151583;23;20433;-52
2022/12/10 11:51:44;;;;;;;7.17;5.30;;;1.80;99.90;;;;;;6151881;23;20488;-53
2022/12/10 11:54:26;;;;;;;10.93;6.07;;;1.80;99.90;;;;;;6152221;23;20391;-48
2022/12/10 11:57:00;;;;;;;8.40;5.83;;;1.80;99.90;;;;;;6152445;23;20445;-55
2022/12/10 11:59:33;;;;;;;7.70;5.23;;;1.70;99.90;;;;;;6143742;23;20387;-50
2022/12/10 12:02:38;;;;;;;9.30;5.60;;;1.80;99.90;;;;;;6152271;23;20426;-47
2022/12/10 12:23:48;;;;;;;12.00;7.23;;;1.70;99.90;;;;;;6176683;23;20826;-58
2022/12/10 12:26:20;;;;;;;12.63;6.27;;;1.70;99.90;;;;;;6063447;23;20504;-54
2022/12/10 12:28:51;;;;;;;10.70;5.33;;;1.60;99.90;;;;;;6163891;23;20402;-59
2022/12/10 12:31:22;;;;;;;11.30;5.40;;;1.60;99.90;;;;;;6181762;23;20371;-55
2022/12/10 12:33:57;;;;;;;12.30;5.70;;;1.60;99.90;;;;;;6182155;23;20378;-63
2022/12/10 12:36:29;;;;;;;11.17;6.47;;;1.60;99.90;;;;;;6182251;23;20385;-58
2022/12/10 12:39:03;;;;;;;14.07;5.50;;;1.60;99.90;;;;;;6182406;23;20410;-52
2022/12/10 12:41:40;;;;;;;12.77;7.00;;;1.60;99.90;;;;;;6182227;23;20370;-55
2022/12/10 12:44:15;;;;;;;10.40;6.57;;;1.70;99.90;;;;;;6182191;23;20382;-58
2022/12/10 12:46:44;;;;;;;8.67;5.97;;;1.60;99.90;;;;;;6181854;23;20428;-56
2022/12/10 12:49:19;;;;;;;10.40;6.40;;;1.60;99.90;;;;;;6181765;23;20433;-47
2022/12/10 12:51:51;;;;;;;11.80;5.43;;;1.60;99.90;;;;;;6181833;23;20386;-50
2022/12/10 12:54:22;;;;;;;11.97;7.10;;;1.60;99.90;;;;;;6181955;23;20366;-56
2022/12/10 12:57:01;;;;;;;8.83;5.80;;;1.60;99.90;;;;;;6181429;23;20390;-51
2022/12/10 12:59:43;;;;;;;9.10;5.40;;;1.60;99.90;;;;;;6181448;23;20465;-55
2022/12/10 13:02:25;;;;;;;9.97;5.97;;;1.60;99.90;;;;;;6181806;23;20409;-50
2022/12/10 13:04:53;;;;;;;10.13;5.53;;;1.60;99.90;;;;;;6182060;23;20457;-53
2022/12/10 13:07:35;;;;;;;6.47;5.40;;;1.60;99.90;;;;;;6182147;23;20441;-58
2022/12/10 13:10:26;;;;;;;13.20;5.90;;;1.60;99.90;;;;;;6181919;23;20402;-59
2022/12/10 13:13:16;;;;;;;8.10;6.00;;;1.60;99.90;;;;;;6181615;23;20417;-59
2022/12/10 13:15:43;;;;;;;9.30;5.00;;;1.60;99.90;;;;;;6180989;23;20397;-55
2022/12/10 13:18:24;;;;;;;10.80;6.80;;;1.60;99.90;;;;;;6181116;23;20409;-54
2022/12/10 13:20:54;;;;;;;10.00;5.57;;;1.60;99.90;;;;;;6182413;23;20446;-57
2022/12/10 13:23:33;;;;;;;7.93;5.80;;;1.60;99.90;;;;;;6180583;23;20449;-56
2022/12/10 13:26:03;;;;;;;9.63;6.13;;;1.60;99.90;;;;;;6181528;23;20482;-55
2022/12/10 13:28:50;;;;;;;11.10;6.00;;;1.60;99.90;;;;;;6180710;23;20453;-58
2022/12/10 13:31:37;;;;;;;9.70;6.37;;;1.60;99.90;;;;;;6181326;23;20433;-58
2022/12/10 13:34:22;;;;;;;15.97;6.33;;;1.50;99.90;;;;;;6177421;23;20433;-58
2022/12/10 13:37:15;;;;;;;8.00;4.70;;;1.50;99.90;;;;;;6182445;23;20417;-56
2022/12/10 13:39:49;;;;;;;14.23;6.10;;;1.50;99.90;;;;;;6183337;23;20366;-56
2022/12/10 13:45:34;;;;;;;8.33;6.50;;;1.50;99.90;;;;;;6179255;23;20493;-54